Time;durP1;ratioP1;P1;durP2;ratioP2;P2;SDS_P1;SDS_P2;PMS_P1;PMS_P2;Temp;Humidity;BMP_temperature;BMP_pressure;BME280_temperature;BME280_humidity;BME280_pressure;Samples;Min_cycle;Max_cycle;Signal;HPM_P1;HPM_P2
2022/06/30 00:01:23;;;;;;;14.20;6.45;;;;;;;13.93;57.40;99472.16;5051336;28;20122;-62
2022/06/30 00:03:49;;;;;;;8.80;4.93;;;;;;;13.92;57.30;99468.69;5035759;28;20545;-62
2022/06/30 00:06:15;;;;;;;17.73;9.30;;;;;;;13.89;57.72;99476.41;5029879;28;20030;-63
2022/06/30 00:08:40;;;;;;;21.77;15.10;;;;;;;13.82;58.50;99471.28;5031267;28;20095;-62
2022/06/30 00:11:09;;;;;;;10.55;5.55;;;;;;;13.77;58.37;99471.28;5031010;28;20095;-63
2022/06/30 00:13:39;;;;;;;7.47;4.60;;;;;;;13.71;58.71;99474.97;5031083;28;20049;-62
2022/06/30 00:16:05;;;;;;;8.93;4.28;;;;;;;13.64;58.74;99459.16;5030110;28;20088;-63
2022/06/30 00:18:31;;;;;;;7.45;4.35;;;;;;;13.59;58.87;99464.50;5031430;28;20141;-62
2022/06/30 00:20:57;;;;;;;10.20;5.10;;;;;;;13.56;59.12;99464.97;5033449;28;20132;-62
2022/06/30 00:23:24;;;;;;;7.70;4.03;;;;;;;13.57;59.15;99474.59;5049832;28;20463;-62
2022/06/30 00:25:50;;;;;;;10.93;3.60;;;;;;;13.57;59.16;99474.59;5051110;28;20049;-63
2022/06/30 00:28:18;;;;;;;7.43;3.60;;;;;;;13.57;58.70;99471.91;5033276;28;20043;-63
2022/06/30 00:30:48;;;;;;;7.38;3.63;;;;;;;13.55;58.62;99466.84;5037892;28;20569;-62
2022/06/30 00:33:14;;;;;;;5.43;3.45;;;;;;;13.58;58.25;99466.31;5031427;28;20042;-63
2022/06/30 00:35:41;;;;;;;8.15;3.53;;;;;;;13.67;58.12;99463.19;5048201;28;20052;-61
2022/06/30 00:38:08;;;;;;;6.20;3.72;;;;;;;13.71;57.77;99459.78;5004207;28;20053;-64
2022/06/30 00:40:38;;;;;;;9.18;3.83;;;;;;;13.76;57.87;99464.31;5032662;28;20068;-61
2022/06/30 00:43:04;;;;;;;7.05;3.90;;;;;;;13.75;57.95;99462.72;5050095;28;20143;-64
2022/06/30 00:45:30;;;;;;;6.00;3.35;;;;;;;13.75;57.72;99463.53;5017024;28;20061;-62
2022/06/30 00:47:56;;;;;;;4.95;3.25;;;;;;;13.74;58.00;99459.25;5033310;28;20084;-61
2022/06/30 00:50:22;;;;;;;8.00;3.92;;;;;;;13.75;58.16;99460.06;5034203;28;20077;-63
2022/06/30 00:52:50;;;;;;;6.55;3.40;;;;;;;13.79;57.93;99458.47;5034319;28;20566;-64
2022/06/30 00:55:17;;;;;;;7.90;3.35;;;;;;;13.86;57.28;99454.53;5034226;28;20148;-62
2022/06/30 00:57:43;;;;;;;7.65;3.33;;;;;;;14.00;57.23;99454.06;5033132;28;20109;-62
2022/06/30 01:00:09;;;;;;;9.05;3.53;;;;;;;14.18;56.63;99456.31;5049289;28;20148;-62
2022/06/30 01:02:36;;;;;;;7.22;3.35;;;;;;;14.35;56.18;99453.44;5035224;28;20499;-63
2022/06/30 01:05:01;;;;;;;9.48;3.60;;;;;;;14.50;55.73;99442.03;5032844;28;20053;-62
2022/06/30 01:07:29;;;;;;;5.35;3.80;;;;;;;14.71;55.61;99440.28;5034408;28;20044;-63
2022/06/30 01:12:43;;;;;;;8.75;3.20;;;;;;;15.18;53.78;99429.41;5053865;28;20041;-63
2022/06/30 01:15:14;;;;;;;4.82;3.78;;;;;;;15.34;53.37;99411.50;5053872;28;20419;-62
2022/06/30 01:17:40;;;;;;;9.80;3.50;;;;;;;15.70;52.79;99438.22;5052727;28;20080;-63
2022/06/30 01:20:06;;;;;;;6.10;3.55;;;;;;;15.87;51.71;99438.72;5053381;28;20072;-63
2022/06/30 01:22:31;;;;;;;4.63;3.00;;;;;;;16.17;51.16;99445.06;5052561;28;20441;-63
2022/06/30 01:24:57;;;;;;;7.28;3.20;;;;;;;16.43;50.54;99453.00;5052357;28;20052;-63
2022/06/30 01:27:23;;;;;;;7.15;3.40;;;;;;;16.61;49.73;99436.31;5052559;28;20171;-63
2022/06/30 01:29:50;;;;;;;7.10;3.53;;;;;;;17.05;49.19;99445.44;5051809;28;22102;-62
2022/06/30 01:32:17;;;;;;;5.80;3.40;;;;;;;17.32;48.07;99437.75;5052266;28;20403;-62
2022/06/30 01:34:42;;;;;;;6.65;3.20;;;;;;;17.55;48.00;99436.22;5052136;28;20048;-62
2022/06/30 01:37:08;;;;;;;9.65;3.45;;;;;;;17.39;48.05;99434.75;5037691;28;20041;-63
2022/06/30 01:39:34;;;;;;;4.22;3.00;;;;;;;17.68;47.13;99432.09;5045713;28;20041;-63
2022/06/30 01:42:00;;;;;;;5.65;3.22;;;;;;;17.97;46.41;99433.94;5053330;28;20103;-63
2022/06/30 01:44:25;;;;;;;5.28;3.15;;;;;;;18.31;46.22;99431.16;5049554;28;20057;-64
2022/06/30 01:46:51;;;;;;;5.35;2.80;;;;;;;18.63;44.63;99425.09;5032437;28;20399;-62
2022/06/30 01:49:17;;;;;;;4.95;2.55;;;;;;;18.82;43.59;99422.44;5032894;28;20049;-64
2022/06/30 01:51:43;;;;;;;4.25;2.80;;;;;;;19.14;43.17;99423.56;5033139;28;20053;-63
2022/06/30 01:54:08;;;;;;;5.05;2.50;;;;;;;19.27;42.78;99426.31;5032142;28;20053;-63
2022/06/30 01:56:35;;;;;;;3.47;2.50;;;;;;;19.45;42.76;99422.00;5031670;28;20045;-64
2022/06/30 01:59:01;;;;;;;4.40;3.15;;;;;;;19.62;42.22;99423.31;5031545;28;20426;-64
2022/06/30 02:01:27;;;;;;;6.43;2.55;;;;;;;20.01;41.22;99422.91;5043463;28;20040;-63
2022/06/30 02:03:52;;;;;;;10.98;3.50;;;;;;;20.41;41.18;99431.22;5053010;28;20513;-64
2022/06/30 02:06:18;;;;;;;5.88;3.22;;;;;;;20.90;40.51;99421.56;5052682;28;20441;-64
2022/06/30 02:08:44;;;;;;;9.07;3.65;;;;;;;21.20;39.64;99417.34;5034978;28;20056;-63
2022/06/30 02:11:10;;;;;;;8.43;3.47;;;;;;;21.52;39.49;99421.69;5052552;28;20415;-63
2022/06/30 02:13:35;;;;;;;4.40;3.35;;;;;;;21.68;38.19;99415.94;5052832;28;20873;-64
2022/06/30 02:16:21;;;;;;;5.57;3.70;;;;;;;22.07;38.04;99419.72;5042870;28;20128;-64
2022/06/30 02:18:47;;;;;;;6.70;3.25;;;;;;;22.30;37.17;99423.94;5032597;28;20152;-62
2022/06/30 02:21:13;;;;;;;4.93;3.30;;;;;;;22.18;37.37;99421.84;5032780;28;20045;-62
2022/06/30 02:23:38;;;;;;;4.68;3.28;;;;;;;21.63;37.90;99424.94;5032737;28;20052;-65
2022/06/30 02:26:04;;;;;;;4.15;2.85;;;;;;;21.53;37.99;99427.88;5032720;28;20037;-63
2022/06/30 02:28:29;;;;;;;5.00;3.10;;;;;;;21.44;38.25;99418.94;5032842;28;20048;-62
2022/06/30 02:30:55;;;;;;;6.38;3.60;;;;;;;21.48;38.57;99419.94;5032669;28;20079;-63
2022/06/30 02:33:21;;;;;;;3.28;2.50;;;;;;;21.44;37.77;99424.34;5032781;28;20061;-62
2022/06/30 02:35:47;;;;;;;6.35;2.60;;;;;;;21.52;37.91;99429.78;5047714;28;20535;-65
2022/06/30 02:38:12;;;;;;;5.22;2.75;;;;;;;21.69;37.01;99422.91;5052297;28;20075;-62
2022/06/30 02:40:38;;;;;;;5.72;3.33;;;;;;;22.30;37.04;99425.88;5051959;28;20068;-64
2022/06/30 02:43:04;;;;;;;9.35;3.70;;;;;;;22.94;35.63;99420.66;5052184;28;20041;-63
2022/06/30 02:45:29;;;;;;;5.25;3.38;;;;;;;23.39;34.86;99423.03;5052211;28;20060;-63
2022/06/30 02:47:55;;;;;;;6.43;3.00;;;;;;;23.68;34.39;99419.63;5051941;28;20041;-64
2022/06/30 02:50:21;;;;;;;5.25;2.88;;;;;;;23.71;33.85;99420.91;5051852;28;20053;-63
2022/06/30 02:52:47;;;;;;;5.00;2.88;;;;;;;24.10;33.48;99421.69;5047981;28;20041;-64
2022/06/30 02:55:12;;;;;;;7.63;2.65;;;;;;;23.79;33.75;99420.06;5031869;28;20051;-63
2022/06/30 02:57:39;;;;;;;5.15;3.63;;;;;;;23.99;33.83;99426.69;5032227;28;20045;-63
2022/06/30 03:00:07;;;;;;;6.15;3.45;;;;;;;23.84;33.65;99422.59;5031855;28;20474;-64
2022/06/30 03:02:33;;;;;;;3.88;3.03;;;;;;;23.76;34.31;99421.50;5032041;28;20038;-63
2022/06/30 03:04:59;;;;;;;8.18;3.35;;;;;;;24.00;34.05;99415.53;5063772;28;20068;-64
2022/06/30 03:07:24;;;;;;;6.75;3.40;;;;;;;24.25;33.24;99418.44;5014369;28;20084;-63
2022/06/30 03:09:50;;;;;;;4.78;3.42;;;;;;;24.55;33.66;99418.41;5031569;28;20046;-62
2022/06/30 03:12:15;;;;;;;7.65;3.55;;;;;;;24.42;33.92;99421.06;5030326;28;20128;-63
2022/06/30 03:14:41;;;;;;;11.18;3.60;;;;;;;24.60;33.54;99429.06;5013739;28;20049;-64
2022/06/30 03:17:07;;;;;;;4.40;3.38;;;;;;;24.51;34.05;99418.28;5030432;28;20577;-62
2022/06/30 03:19:32;;;;;;;5.22;2.92;;;;;;;24.53;34.02;99415.25;5030236;28;20050;-64
2022/06/30 03:21:58;;;;;;;7.68;3.70;;;;;;;24.57;33.92;99421.59;5031623;28;20037;-62
2022/06/30 03:24:24;;;;;;;9.07;3.05;;;;;;;24.70;33.96;99413.19;5031418;28;20142;-63
2022/06/30 03:26:50;;;;;;;5.95;3.00;;;;;;;24.73;33.90;99414.44;5049223;28;20075;-63
2022/06/30 03:29:16;;;;;;;7.30;3.22;;;;;;;24.80;33.98;99420.16;5050043;28;20098;-63
2022/06/30 03:31:41;;;;;;;6.35;3.10;;;;;;;24.74;33.91;99418.78;5018651;28;20098;-63
2022/06/30 03:34:07;;;;;;;6.68;3.25;;;;;;;24.98;34.14;99422.72;5030134;28;20049;-64
2022/06/30 03:36:33;;;;;;;6.07;3.30;;;;;;;25.22;34.19;99420.13;5030041;28;20056;-63
2022/06/30 03:38:59;;;;;;;10.18;3.30;;;;;;;25.47;33.62;99418.28;5031223;28;20041;-64
2022/06/30 03:41:24;;;;;;;5.63;2.80;;;;;;;25.70;32.96;99418.63;5029846;28;20095;-63
2022/06/30 03:43:50;;;;;;;5.38;3.03;;;;;;;25.60;33.11;99419.88;5030267;28;20517;-63
2022/06/30 03:46:16;;;;;;;5.97;3.13;;;;;;;25.84;33.42;99423.78;5031458;28;20041;-62
2022/06/30 03:48:41;;;;;;;7.53;3.10;;;;;;;26.08;33.15;99428.44;5031273;28;20472;-63
2022/06/30 03:51:08;;;;;;;6.38;2.83;;;;;;;26.34;32.65;99430.00;5051109;28;20052;-64
2022/06/30 03:53:33;;;;;;;4.95;2.97;;;;;;;26.29;32.98;99431.00;5051310;28;20055;-63
2022/06/30 03:55:59;;;;;;;7.13;3.17;;;;;;;26.11;33.54;99429.69;5051335;28;20127;-63
2022/06/30 03:58:25;;;;;;;7.68;3.08;;;;;;;25.80;34.12;99425.56;5050667;28;20068;-63
2022/06/30 04:00:51;;;;;;;5.85;2.97;;;;;;;25.79;34.27;99438.34;5051099;28;20037;-64
2022/06/30 04:03:16;;;;;;;6.30;2.70;;;;;;;25.63;34.65;99433.91;5051178;28;20445;-63
2022/06/30 04:05:42;;;;;;;5.13;3.00;;;;;;;25.18;35.70;99427.34;5051072;28;20037;-63
2022/06/30 04:08:08;;;;;;;5.22;2.70;;;;;;;24.87;35.94;99431.25;5042800;28;20037;-63
2022/06/30 04:10:34;;;;;;;4.85;2.90;;;;;;;24.30;37.80;99428.28;5031601;28;20149;-63
2022/06/30 04:13:00;;;;;;;6.95;2.58;;;;;;;24.42;37.21;99429.19;5035004;28;20096;-63
2022/06/30 04:15:27;;;;;;;7.10;2.45;;;;;;;24.79;36.68;99429.38;5033485;28;20412;-63
2022/06/30 04:17:53;;;;;;;3.70;2.50;;;;;;;25.25;35.74;99424.88;5034921;28;20537;-63
2022/06/30 04:20:19;;;;;;;2.67;2.20;;;;;;;25.45;34.70;99422.47;5033299;28;20133;-63
2022/06/30 04:22:47;;;;;;;4.03;2.10;;;;;;;25.91;33.22;99437.59;5048109;28;20051;-63
2022/06/30 04:25:14;;;;;;;3.70;2.17;;;;;;;26.14;32.43;99434.44;5054384;28;20037;-63
2022/06/30 04:27:50;;;;;;;3.17;2.10;;;;;;;26.15;33.19;99438.72;5038667;28;20419;-64
2022/06/30 04:32:37;;;;;;;4.18;2.10;;;;;;;26.14;32.87;99431.72;5034862;28;20075;-62
2022/06/30 04:33:03;;;;;;;3.33;2.25;;;;;;;26.15;33.02;99428.66;5035043;28;20056;-63
2022/06/30 04:35:29;;;;;;;5.60;2.15;;;;;;;26.08;32.71;99424.91;5034777;28;20072;-63
2022/06/30 04:37:58;;;;;;;2.10;1.90;;;;;;;26.05;32.19;99429.91;5034872;28;20420;-63
2022/06/30 04:43:09;;;;;;;3.90;1.92;;;;;;;26.50;32.21;99420.03;5034651;28;20511;-63
2022/06/30 04:45:35;;;;;;;2.15;1.63;;;;;;;26.67;30.18;99414.31;5043020;28;20072;-62
2022/06/30 04:48:01;;;;;;;5.93;1.70;;;;;;;26.77;29.85;99415.78;5053139;28;20041;-63
2022/06/30 04:50:26;;;;;;;3.17;1.45;;;;;;;26.72;29.73;99418.75;5052738;28;20052;-62
2022/06/30 04:52:52;;;;;;;2.25;1.40;;;;;;;26.54;30.30;99426.38;5053003;28;20044;-64
2022/06/30 04:55:18;;;;;;;1.60;1.50;;;;;;;26.71;30.17;99417.16;5052518;28;20057;-64
2022/06/30 04:57:43;;;;;;;3.35;1.40;;;;;;;26.72;29.06;99416.81;5054215;28;20045;-63
2022/06/30 05:00:09;;;;;;;3.17;1.40;;;;;;;26.35;28.96;99416.06;5053984;28;20065;-64
2022/06/30 05:02:35;;;;;;;1.25;1.20;;;;;;;26.01;27.78;99423.56;5054133;28;20049;-63
2022/06/30 05:05:01;;;;;;;1.88;1.30;;;;;;;25.98;27.80;99416.09;5037844;28;20154;-62
2022/06/30 05:07:27;;;;;;;1.95;1.30;;;;;;;25.72;26.09;99421.03;5034207;28;20049;-65
2022/06/30 05:09:52;;;;;;;3.90;1.20;;;;;;;25.50;27.01;99424.94;5033457;28;20083;-63
2022/06/30 05:12:18;;;;;;;1.35;1.23;;;;;;;25.15;26.96;99415.25;5033748;28;20045;-63
2022/06/30 05:14:44;;;;;;;2.30;1.30;;;;;;;24.82;27.51;99417.88;5033144;28;20122;-63
2022/06/30 05:17:10;;;;;;;1.63;1.30;;;;;;;24.33;28.32;99417.59;5033405;28;20048;-63
2022/06/30 05:19:35;;;;;;;1.80;1.50;;;;;;;24.07;29.30;99411.53;5033553;28;20038;-63
2022/06/30 05:22:02;;;;;;;1.45;1.35;;;;;;;23.90;29.29;99413.19;5032657;28;20049;-63
2022/06/30 05:27:12;;;;;;;2.28;1.35;;;;;;;23.37;29.04;99416.34;5033557;28;20029;-63
2022/06/30 05:29:38;;;;;;;1.30;1.20;;;;;;;23.09;29.99;99404.00;5033450;28;20045;-63
2022/06/30 05:32:04;;;;;;;2.50;1.42;;;;;;;23.23;29.96;99422.72;5032080;28;20071;-63
2022/06/30 05:34:30;;;;;;;1.35;1.10;;;;;;;23.21;28.38;99410.66;5033267;28;20045;-64
2022/06/30 05:36:56;;;;;;;1.63;1.20;;;;;;;22.98;29.82;99410.06;5033085;28;20048;-63
2022/06/30 05:39:21;;;;;;;2.08;1.20;;;;;;;23.10;31.14;99405.59;5034798;28;20044;-62
2022/06/30 05:41:47;;;;;;;1.52;1.35;;;;;;;23.02;30.41;99405.59;5032929;28;20041;-62
2022/06/30 05:44:13;;;;;;;1.58;1.20;;;;;;;22.73;30.38;99407.00;5042371;28;20048;-62
2022/06/30 05:46:38;;;;;;;3.08;1.60;;;;;;;22.50;29.16;99413.66;5052835;28;20094;-64
2022/06/30 05:49:06;;;;;;;4.20;1.20;;;;;;;22.11;30.23;99412.59;5053195;28;20047;-63
2022/06/30 05:51:32;;;;;;;1.30;1.20;;;;;;;21.92;31.78;99413.66;5053057;28;20086;-63
2022/06/30 05:53:58;;;;;;;3.45;1.40;;;;;;;21.78;30.98;99421.84;5052907;28;20570;-62
2022/06/30 05:56:24;;;;;;;6.70;1.48;;;;;;;21.75;31.68;99425.16;5039883;28;20044;-62
2022/06/30 05:58:49;;;;;;;4.18;1.75;;;;;;;21.72;32.87;99414.19;5048025;28;20073;-63
2022/06/30 06:01:15;;;;;;;4.88;1.30;;;;;;;21.64;32.37;99423.03;5041697;28;20040;-62
2022/06/30 06:03:41;;;;;;;3.22;1.55;;;;;;;21.61;33.31;99419.03;5042654;28;20127;-61
2022/06/30 06:06:06;;;;;;;1.30;1.20;;;;;;;21.52;34.01;99427.09;5041495;28;20037;-63
2022/06/30 06:08:32;;;;;;;3.00;1.33;;;;;;;21.45;33.18;99412.47;5040233;28;20091;-61
2022/06/30 06:10:58;;;;;;;1.10;1.10;;;;;;;21.38;31.27;99418.28;5040733;28;20044;-63
2022/06/30 06:13:24;;;;;;;2.20;1.10;;;;;;;21.30;30.03;99419.03;5041922;28;20553;-62
2022/06/30 06:15:49;;;;;;;2.72;1.40;;;;;;;21.22;30.20;99406.28;5025015;28;20041;-62
2022/06/30 06:18:16;;;;;;;1.95;1.20;;;;;;;21.37;29.23;99419.41;5039988;28;20136;-62
2022/06/30 06:20:42;;;;;;;2.58;1.40;;;;;;;21.24;29.98;99422.94;5042914;28;20041;-61
2022/06/30 06:23:08;;;;;;;1.58;1.25;;;;;;;20.99;30.80;99425.13;5041355;28;20502;-62
2022/06/30 06:25:34;;;;;;;1.20;1.10;;;;;;;21.06;31.25;99413.91;5040128;28;20478;-62
2022/06/30 06:30:44;;;;;;;4.40;1.20;;;;;;;21.22;29.14;99401.66;5032067;28;20053;-63
2022/06/30 06:33:10;;;;;;;4.45;1.70;;;;;;;21.28;30.14;99415.81;5029547;28;20047;-62
2022/06/30 06:35:36;;;;;;;2.05;1.30;;;;;;;21.31;30.64;99407.13;5032499;28;20045;-62
2022/06/30 06:38:01;;;;;;;1.95;1.20;;;;;;;21.36;31.26;99395.41;5047142;28;20082;-62
2022/06/30 06:40:28;;;;;;;1.50;1.40;;;;;;;21.44;31.75;99402.78;5044948;28;20546;-62
2022/06/30 06:42:54;;;;;;;2.15;1.55;;;;;;;21.35;32.86;99399.19;5033788;28;20080;-62
2022/06/30 06:45:19;;;;;;;3.55;1.50;;;;;;;21.35;33.86;99402.69;5029846;28;20072;-63
2022/06/30 06:47:46;;;;;;;3.15;1.60;;;;;;;21.29;33.66;99410.09;5029670;28;20128;-63
2022/06/30 06:50:12;;;;;;;1.55;1.42;;;;;;;21.26;33.43;99408.03;5030835;28;20472;-62
2022/06/30 06:52:37;;;;;;;1.98;1.60;;;;;;;21.23;33.73;99397.88;5028496;28;20124;-63
2022/06/30 06:55:04;;;;;;;1.73;1.50;;;;;;;21.26;33.56;99391.06;5029541;28;20128;-62
2022/06/30 06:57:35;;;;;;;2.03;1.35;;;;;;;21.32;34.24;99400.59;5030616;28;20045;-62
2022/06/30 07:00:03;;;;;;;4.00;1.73;;;;;;;21.45;34.68;99396.28;5030573;28;20061;-62
2022/06/30 07:02:29;;;;;;;3.58;1.52;;;;;;;21.44;34.07;99400.91;5031430;28;20474;-61
2022/06/30 07:04:55;;;;;;;3.40;1.60;;;;;;;21.45;33.12;99391.69;5030051;28;20548;-62
2022/06/30 07:07:21;;;;;;;4.65;1.60;;;;;;;21.39;33.73;99397.53;5031024;28;20506;-62
2022/06/30 07:09:46;;;;;;;2.60;1.67;;;;;;;21.40;32.96;99391.03;5028591;28;20045;-61
2022/06/30 07:12:12;;;;;;;2.70;1.70;;;;;;;21.43;33.97;99391.19;5029804;28;20395;-61
2022/06/30 07:14:37;;;;;;;2.25;1.50;;;;;;;21.55;32.94;99391.41;5028382;28;20092;-61
2022/06/30 07:17:04;;;;;;;1.77;1.42;;;;;;;21.53;33.94;99393.66;5028806;28;20045;-62
2022/06/30 07:19:30;;;;;;;2.97;1.60;;;;;;;21.55;33.41;99387.91;5029984;28;20054;-62
2022/06/30 07:21:56;;;;;;;5.95;1.70;;;;;;;21.50;33.63;99390.75;5035689;28;20479;-61
2022/06/30 07:24:22;;;;;;;1.70;1.60;;;;;;;21.52;32.16;99394.72;5014711;28;20048;-66
2022/06/30 07:26:48;;;;;;;2.33;1.60;;;;;;;21.47;32.48;99392.19;5048755;28;20118;-65
2022/06/30 07:29:14;;;;;;;3.13;1.63;;;;;;;21.37;32.43;99394.34;5048044;28;20052;-62
2022/06/30 07:31:39;;;;;;;2.92;1.70;;;;;;;21.39;31.89;99398.31;5036556;28;20068;-62
2022/06/30 07:34:05;;;;;;;4.10;1.70;;;;;;;21.36;32.38;99403.50;5030487;28;20503;-61
2022/06/30 07:36:31;;;;;;;2.45;1.60;;;;;;;21.37;31.91;99402.44;5011947;28;20041;-63
2022/06/30 07:38:56;;;;;;;4.70;1.55;;;;;;;21.47;32.12;99392.19;5044911;28;20455;-63
2022/06/30 07:41:24;;;;;;;2.30;1.70;;;;;;;21.49;32.25;99394.56;5046739;28;20040;-63
2022/06/30 07:43:50;;;;;;;4.35;2.38;;;;;;;21.54;32.34;99410.63;5048522;28;20391;-61
2022/06/30 07:46:16;;;;;;;2.42;1.80;;;;;;;21.40;31.98;99405.28;5047892;28;20037;-62
2022/06/30 07:48:42;;;;;;;3.78;1.92;;;;;;;21.50;32.25;99393.44;5047506;28;20603;-62
2022/06/30 07:51:08;;;;;;;3.50;1.95;;;;;;;21.57;31.68;99390.31;5048745;28;20525;-63
2022/06/30 07:53:34;;;;;;;5.70;2.40;;;;;;;21.57;31.45;99398.41;5048436;28;20045;-62
2022/06/30 07:56:00;;;;;;;4.93;2.65;;;;;;;21.56;31.31;99386.84;5030396;28;20056;-61
2022/06/30 07:58:25;;;;;;;7.50;2.60;;;;;;;21.59;31.70;99382.69;5049735;28;20091;-62
2022/06/30 08:00:51;;;;;;;3.25;2.33;;;;;;;21.59;31.40;99382.69;5030209;28;20052;-64
2022/06/30 08:03:17;;;;;;;3.65;2.05;;;;;;;21.55;31.69;99372.53;5031116;28;20045;-63
2022/06/30 08:05:43;;;;;;;7.10;2.53;;;;;;;21.61;31.47;99386.69;5011844;28;20402;-62
2022/06/30 08:08:08;;;;;;;3.35;2.00;;;;;;;21.63;31.61;99371.00;5029308;28;20056;-62
2022/06/30 08:10:34;;;;;;;1.58;1.48;;;;;;;21.68;32.52;99376.25;5028752;28;20068;-62
2022/06/30 08:13:00;;;;;;;2.05;1.67;;;;;;;21.70;32.51;99355.13;5030078;28;20056;-66
2022/06/30 08:15:26;;;;;;;3.95;1.65;;;;;;;21.81;32.45;99355.66;5029392;28;20050;-62
2022/06/30 08:17:52;;;;;;;5.57;1.85;;;;;;;21.84;32.59;99365.84;5037380;28;20044;-62
2022/06/30 08:20:18;;;;;;;2.97;2.00;;;;;;;21.89;32.72;99346.00;5049165;28;20087;-64
2022/06/30 08:22:43;;;;;;;6.82;2.00;;;;;;;21.87;32.64;99354.41;5039334;28;20030;-62
2022/06/30 08:25:09;;;;;;;2.85;2.03;;;;;;;21.98;32.45;99355.72;5029896;28;20052;-63
2022/06/30 08:27:35;;;;;;;3.88;2.10;;;;;;;21.95;32.26;99350.94;5027561;28;20045;-63
2022/06/30 08:30:00;;;;;;;3.38;1.60;;;;;;;21.98;32.01;99336.03;5029191;28;20053;-63
2022/06/30 08:32:26;;;;;;;8.25;2.10;;;;;;;22.09;32.84;99341.91;5030061;28;20052;-66
2022/06/30 08:34:52;;;;;;;2.13;1.70;;;;;;;22.10;32.15;99338.13;5035927;28;20041;-62
2022/06/30 08:37:18;;;;;;;4.70;2.20;;;;;;;22.18;31.87;99338.16;5046037;28;20047;-62
2022/06/30 08:42:30;;;;;;;6.28;1.70;;;;;;;22.08;29.86;99337.63;5029221;28;20131;-62
2022/06/30 08:47:41;;;;;;;3.20;1.75;;;;;;;22.24;30.67;99330.72;5028795;28;20425;-61
2022/06/30 08:50:08;;;;;;;1.70;1.60;;;;;;;22.29;30.35;99337.84;5029635;28;20042;-59
2022/06/30 08:52:41;;;;;;;5.57;1.40;;;;;;;22.26;31.16;99322.28;5028775;28;20045;-61
2022/06/30 08:55:08;;;;;;;3.97;1.90;;;;;;;22.32;31.63;99327.19;5029457;28;20049;-64
2022/06/30 08:57:34;;;;;;;4.97;1.73;;;;;;;22.39;30.93;99326.75;5030154;28;20055;-66
2022/06/30 09:00:00;;;;;;;5.15;1.60;;;;;;;22.44;31.19;99334.69;5031270;28;20435;-63
2022/06/30 09:02:25;;;;;;;2.35;1.60;;;;;;;22.38;30.36;99328.66;5033420;28;20424;-66
2022/06/30 09:04:51;;;;;;;2.95;1.80;;;;;;;22.32;30.08;99339.91;5031949;28;20042;-66
2022/06/30 09:07:17;;;;;;;2.97;1.60;;;;;;;22.26;30.30;99328.47;5032848;28;20037;-66
2022/06/30 09:09:43;;;;;;;4.88;1.75;;;;;;;22.30;29.74;99320.56;5033012;28;20562;-64
2022/06/30 09:12:17;;;;;;;3.08;1.60;;;;;;;22.30;30.67;99320.56;5032430;28;20077;-64
2022/06/30 09:14:47;;;;;;;6.85;1.77;;;;;;;22.37;31.38;99321.66;5047245;28;20040;-64
2022/06/30 09:17:15;;;;;;;2.03;1.70;;;;;;;22.30;30.82;99315.94;5050609;28;20045;-65
2022/06/30 09:20:04;;;;;;;2.75;2.00;;;;;;;22.35;31.53;99321.16;5049959;28;20057;-64
2022/06/30 09:22:33;;;;;;;7.13;1.90;;;;;;;22.44;30.58;99316.59;5039177;28;20049;-64
2022/06/30 09:25:00;;;;;;;2.63;1.90;;;;;;;22.48;31.19;99332.94;5033436;28;20045;-64
2022/06/30 09:27:29;;;;;;;2.97;1.67;;;;;;;22.43;31.17;99325.00;5032538;28;20056;-67
2022/06/30 09:30:15;;;;;;;3.25;1.90;;;;;;;22.38;30.96;99325.97;5033014;28;20080;-65
2022/06/30 09:32:44;;;;;;;4.47;2.08;;;;;;;22.52;31.63;99317.69;5027436;28;20041;-64
2022/06/30 09:35:10;;;;;;;4.75;2.00;;;;;;;22.59;31.25;99317.19;5032005;28;20041;-64
2022/06/30 09:37:37;;;;;;;2.00;1.70;;;;;;;22.54;30.93;99296.56;5031572;28;20389;-64
2022/06/30 09:40:03;;;;;;;3.08;1.80;;;;;;;22.55;31.88;99318.97;5037517;28;20040;-63
2022/06/30 09:42:36;;;;;;;4.72;1.98;;;;;;;22.53;31.69;99305.78;5051511;28;20041;-65
2022/06/30 09:45:02;;;;;;;4.10;1.90;;;;;;;22.56;31.52;99304.31;5052667;28;20053;-65
2022/06/30 09:47:29;;;;;;;4.88;1.77;;;;;;;22.56;32.18;99291.63;5048354;28;20094;-64
2022/06/30 09:49:54;;;;;;;3.28;1.77;;;;;;;22.57;31.49;99290.50;5051144;28;20048;-66
2022/06/30 09:52:23;;;;;;;2.60;1.90;;;;;;;22.63;31.05;99299.25;5051302;28;20148;-65
2022/06/30 09:54:58;;;;;;;2.67;1.60;;;;;;;22.63;30.87;99297.34;5051775;28;20055;-64
2022/06/30 09:57:32;;;;;;;2.60;1.67;;;;;;;22.69;31.05;99311.47;5050978;28;20037;-67
2022/06/30 10:00:05;;;;;;;2.08;1.50;;;;;;;22.71;30.48;99295.75;5050589;28;20068;-65
2022/06/30 10:02:36;;;;;;;6.25;1.88;;;;;;;22.74;31.36;99278.91;5047387;28;20415;-66
2022/06/30 10:05:04;;;;;;;2.72;1.70;;;;;;;22.78;31.03;99276.34;5032289;28;20041;-67
2022/06/30 10:07:34;;;;;;;4.57;1.75;;;;;;;22.86;31.87;99275.53;5029294;28;20408;-68
2022/06/30 10:10:06;;;;;;;2.47;1.83;;;;;;;22.93;32.16;99280.44;5031150;28;20151;-68
2022/06/30 10:12:32;;;;;;;1.42;1.33;;;;;;;22.89;31.17;99275.69;5040313;28;20036;-66
2022/06/30 10:14:58;;;;;;;2.10;1.80;;;;;;;22.94;31.87;99282.03;5051011;28;20041;-69
2022/06/30 10:17:26;;;;;;;3.55;1.60;;;;;;;22.93;31.39;99278.53;5049450;28;20449;-69
2022/06/30 10:19:52;;;;;;;2.95;1.75;;;;;;;22.93;31.92;99270.41;5032267;28;20042;-70
2022/06/30 10:22:20;;;;;;;2.72;1.40;;;;;;;22.95;32.18;99268.22;5031574;28;20041;-67
2022/06/30 10:24:47;;;;;;;1.80;1.70;;;;;;;23.03;31.61;99258.50;5029638;28;20538;-72
2022/06/30 10:27:13;;;;;;;2.78;1.65;;;;;;;23.11;32.44;99246.84;5017077;28;20060;-63
2022/06/30 10:29:41;;;;;;;5.28;1.52;;;;;;;23.14;32.39;99257.03;5030376;28;20474;-63
2022/06/30 10:32:20;;;;;;;2.53;1.70;;;;;;;23.06;32.54;99261.38;5028585;28;20642;-62
2022/06/30 10:34:55;;;;;;;2.30;1.60;;;;;;;23.12;31.95;99256.56;5044228;28;20037;-63
2022/06/30 10:37:25;;;;;;;4.55;1.73;;;;;;;23.15;31.47;99257.81;5050571;28;20044;-66
2022/06/30 10:39:58;;;;;;;2.17;1.60;;;;;;;23.23;31.23;99275.91;5029374;28;20133;-62
2022/06/30 10:42:42;;;;;;;4.25;1.90;;;;;;;23.25;31.74;99268.28;5033579;28;20068;-64
2022/06/30 10:45:30;;;;;;;2.72;1.70;;;;;;;23.21;31.81;99276.25;5031361;28;20041;-63
2022/06/30 10:47:56;;;;;;;2.47;1.80;;;;;;;23.10;32.09;99265.00;5042608;28;20049;-64
2022/06/30 10:50:42;;;;;;;3.53;1.60;;;;;;;23.19;32.05;99262.25;5030632;28;20426;-64
2022/06/30 10:53:10;;;;;;;4.05;1.95;;;;;;;23.23;31.74;99262.41;5031428;28;20042;-65
2022/06/30 10:55:43;;;;;;;1.90;1.70;;;;;;;23.25;31.26;99265.59;5031839;28;20041;-64
2022/06/30 10:58:09;;;;;;;3.03;1.85;;;;;;;23.32;31.51;99260.44;5029997;28;20045;-64
2022/06/30 11:00:46;;;;;;;2.38;1.50;;;;;;;23.17;31.60;99323.19;5028966;28;20065;-65
2022/06/30 11:03:29;;;;;;;4.35;1.90;;;;;;;23.19;31.75;99258.78;5029592;28;20045;-64
2022/06/30 11:05:56;;;;;;;7.18;1.58;;;;;;;23.22;31.65;99250.78;5047284;28;20051;-65
2022/06/30 11:08:47;;;;;;;3.30;1.85;;;;;;;23.31;31.69;99258.88;5031362;28;20139;-63
2022/06/30 11:11:22;;;;;;;3.45;1.67;;;;;;;23.33;30.62;99249.31;5049257;28;20605;-65
2022/06/30 11:14:03;;;;;;;2.38;1.52;;;;;;;23.32;31.47;99250.44;5030892;28;20049;-65
2022/06/30 11:16:37;;;;;;;6.43;2.10;;;;;;;23.36;31.64;99253.28;5048536;28;20410;-67
2022/06/30 11:19:04;;;;;;;7.68;1.77;;;;;;;23.41;30.62;99236.06;5047276;28;20409;-64
2022/06/30 11:21:31;;;;;;;2.97;1.73;;;;;;;23.40;30.76;99240.69;5047725;28;20037;-64
2022/06/30 11:24:00;;;;;;;3.53;1.60;;;;;;;23.33;30.27;99241.22;5042395;28;20315;-62
2022/06/30 11:29:14;;;;;;;7.20;1.90;;;;;;;23.32;31.14;99247.75;5038788;28;20362;-63
2022/06/30 11:31:41;;;;;;;2.28;1.65;;;;;;;23.38;30.27;99234.00;5023967;28;20053;-63
2022/06/30 11:34:10;;;;;;;3.33;1.60;;;;;;;23.44;30.54;99236.22;5050293;28;20049;-62
2022/06/30 11:36:38;;;;;;;3.90;1.63;;;;;;;23.43;30.83;99236.53;5050180;28;20411;-64
2022/06/30 11:39:12;;;;;;;3.35;1.58;;;;;;;23.54;30.86;99230.44;5044947;28;20045;-62
2022/06/30 11:41:54;;;;;;;3.17;1.70;;;;;;;23.64;31.04;99244.69;5030238;28;20045;-63
2022/06/30 11:44:34;;;;;;;4.10;1.50;;;;;;;23.63;30.40;99243.91;5030891;28;20097;-62
2022/06/30 11:47:04;;;;;;;2.85;1.50;;;;;;;23.62;30.68;99226.09;5029082;28;20436;-62
2022/06/30 11:50:06;;;;;;;1.60;1.50;;;;;;;23.61;30.19;99213.66;5040871;28;20056;-61
2022/06/30 11:52:37;;;;;;;3.58;1.50;;;;;;;23.65;30.69;99228.16;5028518;28;20300;-63
2022/06/30 11:55:05;;;;;;;1.83;1.45;;;;;;;23.69;30.21;99212.81;5030541;28;20049;-63